Airfield :
LOGIN :

Register | Disclaimer

   EN    FR    IT 

 










Legend :    VFR   Marginal VFR   IFR   Intensive IFR   Very Intensive IFR
Visi :
Ceiling :
>= 8 km
>= 3000ft
5 to 8 km
1000 to 3000 ft
1500m to 5 km
500 to 1000 ft
800 to 1500m
200 to 500 ft
< 800m
< 200 ft
Symbols :   Thunderstorms  Fog  Heavy snow  Heavy precipitations  Wind > 20 kt
SIGMETs :     Misc.  Thunderstorms  Icing  Turbulence  Mountain Waves  Volcanic Ashes







- Airport Elevation : 436 ft
- IATA code : BTS


LZIB - Bratislava

CURRENT METAR :
  • 241000Z 30008KT 260V340 9999 FEW034 SCT036 21/13 Q1017 NOSIG

EXPIRED METARs :
  • 240930Z 29008KT 260V340 9999 FEW033 BKN036 20/13 Q1018 NOSIG
  • 240900Z 28008KT 9999 FEW028 SCT032 19/13 Q1018 NOSIG
  • 240830Z 29010KT 9999 FEW026 18/13 Q1018 NOSIG
  • 240800Z 30011KT 9999 FEW026 18/12 Q1018 NOSIG
  • 240730Z 30007KT 270V330 9999 FEW022 18/13 Q1018 NOSIG

TAF TAF LZIB
Valid from the 24 at 06:00 until the 25 at 06:00 UTC


240500Z 2406/2506 29007KT CAVOK
TEMPO 2407/2414 30010G25KT SHRA SCT035TCU BKN060
BECMG 2415/2417 24005KT
BECMG 2419/2421 CAVOK
No reported NOTAMs for that airfield.



MET'MAP, your aeronautical weather chart ! - Copyright ORBIFLY December 2007 - Disclaimer

ORBIFLY MET'MAP TEAM :

Programming & Development : Alexandra Zaïnal
Concept & Development : Baudouin d'Aumeries
Co-Development & Prog : Marc-Olivier Méhu
Technical & hardware support : Manuel Goepfert

Contact : metmap@orbifly.com




SOURCES & CREDITS :

   NOAA